Draffin, Kentucky
Current Conditions -  °F | °C
As of 10:35 PM on Monday 20 Oct 2014 (Local Time) from KPBX Reporting Station
Scattered Clouds Scattered Clouds  
Wind Chill: 53°   Ceiling: Unl
Heat Index: 53°   Visibility: 10mi
Dew Point: 50°   Wind: 3mph
Humidity: 89%   Direction: 200°SSW
Pressure: 29.98"   Gusts: NA
Location:  37.3089°N, 82.3418°W
Report Text: KPBX 210235Z AUTO 20003KT 10SM SCT039 SCT055 12/10 A2998 RMK AO2 T01170100
Loading
Personal Weather Stations






























Interactive Weather Map
Tropical Storm Tracking
New forecast layout! Learn more

10-Day Weather Forecast

Advertisements
Track Severe Weather on mobile